Latest Coastal Weather Observations for Coolangatta (QLD)

IDN60701

Issued at 1:51 am EST Saturday 30 July 2016 (issued every 10 minutes, with the page automatically refreshed every 10 minutes)

About coastal observations | Map of coastal stations | Coastal observations for NSW | Marine services | Other Formats
Station Details ID: 040717 Name: COOLANGATTA Lat: -28.17 Lon: 153.51 Height: 4.0 m
Data from the previous 72 hours. | See also: Recent months at Coolangatta (QLD)
Date/Time
EST
Temp
°C
Wind Pressure Rain since
9am
mm
Weather Cloud Vis
km
Sea
Height
m
Swell
Dir  Spd
kts
Gust
kts
hPa Trend Height
m
Period
s
Dir
30/01:30am 10.1 WNW 3 6 1019.5 - 0.0 - - 10 - - - -
30/01:00am 10.9 WNW 6 9 1019.9 - 0.0 - - 10 - - - -
30/12:30am 10.1 WNW 4 5 1020.0 - 0.0 - - 10 - - - -
30/12:00am 11.1 WSW 3 4 1020.1 - 0.0 - - 10 - - - -
 
Date/Time
EST
Temp
°C
Wind Pressure Rain since
9am
mm
Weather Cloud Vis
km
Sea
Height
m
Swell
Dir  Spd
kts
Gust
kts
hPa Trend Height
m
Period
s
Dir
29/11:30pm 11.6 W 4 5 1020.4 - 0.0 - - 10 - - - -
29/11:00pm 13.6 WNW 4 6 1020.4 - 0.0 - - 10 - - - -
29/10:30pm 14.9 WNW 5 7 1020.5 - 0.0 - - 10 - - - -
29/10:00pm 15.2 WNW 7 9 1020.6 - 0.0 - - 10 - - - -
29/09:30pm 15.2 WNW 6 8 1020.5 - 0.0 - - 10 - - - -
29/09:00pm 15.0 WNW 6 8 1020.5 - 0.0 - - 10 - - - -
29/08:30pm 15.0 WNW 6 7 1020.4 - 0.0 - - 10 - - - -
29/08:00pm 15.3 WNW 6 8 1020.2 - 0.0 - - 10 - - - -
29/07:30pm 15.0 WNW 6 8 1020.0 - 0.0 - - 10 - - - -
29/07:00pm 16.8 NW 5 6 1019.8 - 0.0 - - 10 - - - -
29/06:30pm 18.4 NNW 7 11 1019.6 - 0.0 - - 10 - - - -
29/06:00pm 18.9 N 11 15 1019.4 - 0.0 - - 10 - - - -
29/05:30pm 19.2 N 11 15 1019.1 - 0.0 - - 10 - - - -
29/05:00pm 19.8 N 11 14 1019.0 - 0.0 - - 10 - - - -
29/04:30pm 20.2 N 12 15 1018.9 - 0.0 - - 10 - - - -
29/04:00pm 20.8 N 11 14 1018.9 - 0.0 - - 10 - - - -
29/03:30pm 21.3 N 12 15 1019.0 - 0.0 - - 10 - - - -
29/03:00pm 21.4 N 13 16 1019.1 - 0.0 - - 10 - - - -
29/02:30pm 21.9 N 12 16 1019.2 - 0.0 - - 10 - - - -
29/02:00pm 21.9 N 12 15 1019.5 - 0.0 - - 10 - - - -
29/01:30pm 22.1 NNE 11 15 1019.7 - 0.0 - - 10 - - - -
29/01:00pm 22.0 N 12 14 1020.1 - 0.0 - - 10 - - - -
29/12:30pm 22.7 NNW 8 15 1020.7 - 0.0 - - 10 - - - -
29/12:00pm 22.5 NW 7 9 1021.4 - 0.0 - - 10 - - - -
29/11:30am 22.3 NW 6 10 1021.9 - 0.0 - - 10 - - - -
29/11:00am 21.8 NW 6 9 1022.4 - 0.0 - - 10 - - - -
29/10:30am 21.3 WNW 6 10 1022.7 - 0.0 - - 10 - - - -
29/10:00am 20.4 NW 5 8 1023.1 - 0.0 - - 10 - - - -
29/09:30am 18.4 W 4 6 1023.3 - 0.0 - - 10 - - - -
29/09:00am 17.1 CALM 0 0 1023.4 - 0.0 - - 10 - - - -
29/08:30am 14.2 CALM 0 0 1023.2 - 0.0 - - 10 - - - -
29/08:00am 11.5 CALM 0 0 1023.1 - 0.0 - - 10 - - - -
29/07:30am 10.1 CALM 0 0 1023.0 - 0.0 - - 10 - - - -
29/07:00am 8.5 SW 2 4 1023.0 - 0.0 - - 10 - - - -
29/06:53am 7.9 CALM 0 0 1023.0 - 0.0 - - 10 - - - -
29/06:30am 8.5 CALM 0 0 1022.8 - 0.0 - - 10 - - - -
29/06:17am 7.8 CALM 0 1 1022.7 - 0.0 - - 6 - - - -
29/06:04am 7.7 CALM 0 0 1022.6 - 0.0 - - 10 - - - -
29/06:00am 8.3 CALM 0 0 1022.6 - 0.0 - - 10 - - - -
29/05:41am 8.0 CALM 0 0 1022.3 - 0.0 - - 6 - - - -
29/05:30am 8.3 CALM 0 0 1022.2 - 0.0 - - 8 - - - -
29/05:00am 9.1 CALM 0 0 1021.9 - 0.0 - - 10 - - - -
29/04:34am 9.2 SW 3 4 1021.8 - 0.0 - - 10 - - - -
29/04:30am 9.1 SW 2 4 1021.7 - 0.0 - - 10 - - - -
29/04:13am 9.1 CALM 0 0 1021.7 - 0.0 - - 6 - - - -
29/04:08am 9.1 CALM 0 0 1021.6 - 0.0 - - 10 - - - -
29/04:00am 9.3 CALM 0 0 1021.7 - 0.0 - - 8 - - - -
29/03:46am 9.0 SW 2 3 1021.7 - 0.0 - - 5 - - - -
29/03:41am 9.0 SW 2 4 1021.7 - 0.0 - - 9 - - - -
29/03:30am 8.7 SW 2 4 1021.7 - 0.0 - - 3 - - - -
29/03:21am 8.8 SW 2 3 1021.8 - 0.0 - - 5 - - - -
29/03:00am 9.8 CALM 0 0 1021.8 - 0.0 - - 10 - - - -
29/02:30am 9.6 SW 3 4 1021.9 - 0.0 - - 10 - - - -
29/02:00am 9.6 SSW 3 3 1022.1 - 0.0 - - 10 - - - -
29/01:30am 9.7 SW 3 4 1022.1 - 0.0 - - 10 - - - -
29/01:00am 9.8 CALM 0 0 1022.2 - 0.0 - - 10 - - - -
29/12:30am 10.3 CALM 0 3 1022.2 - 0.0 - - 10 - - - -
29/12:00am 10.6 SW 2 4 1022.4 - 0.0 - - 10 - - - -
 
Date/Time
EST
Temp
°C
Wind Pressure Rain since
9am
mm
Weather Cloud Vis
km
Sea
Height
m
Swell
Dir  Spd
kts
Gust
kts
hPa Trend Height
m
Period
s
Dir
28/11:30pm 10.5 SW 3 4 1022.5 - 0.0 - - 10 - - - -
28/11:00pm 10.4 SW 3 4 1022.7 - 0.0 - - 10 - - - -
28/10:30pm 11.2 CALM 0 3 1022.9 - 0.0 - - 10 - - - -
28/10:00pm 11.1 SW 3 5 1023.1 - 0.0 - - 10 - - - -
28/09:30pm 11.3 SW 3 5 1023.1 - 0.0 - - 10 - - - -
28/09:00pm 11.3 WSW 5 6 1023.2 - 0.0 - - 10 - - - -
28/08:30pm 11.9 WSW 3 5 1023.3 - 0.0 - - 10 - - - -
28/08:00pm 12.3 SW 3 5 1023.3 - 0.0 - - 10 - - - -
28/07:30pm 12.6 WSW 7 8 1023.3 - 0.0 - - 10 - - - -
28/07:00pm 13.6 WSW 7 8 1023.0 - 0.0 - - 10 - - - -
28/06:30pm 14.1 WSW 6 7 1022.8 - 0.0 - - 10 - - - -
28/06:00pm 14.7 WSW 5 6 1022.7 - 0.0 - - 10 - - - -
28/05:30pm 16.4 S 4 5 1022.4 - 0.0 - - 10 - - - -
28/05:00pm 17.4 SSE 6 9 1022.2 - 0.0 - - 10 - - - -
28/04:30pm 18.6 SE 11 14 1021.9 - 0.0 - - 10 - - - -
28/04:00pm 19.3 SE 12 16 1021.9 - 0.0 - - 10 - - - -
28/03:30pm 19.9 SE 11 15 1021.8 - 0.0 - - 10 - - - -
28/03:00pm 20.3 SE 12 15 1021.7 - 0.0 - - 10 - - - -
28/02:30pm 20.6 ESE 11 14 1021.7 - 0.0 - - 10 - - - -
28/02:00pm 20.8 ESE 11 14 1021.7 - 0.0 - - 10 - - - -
28/01:30pm 21.4 ESE 10 14 1021.7 - 0.0 - - 10 - - - -
28/01:00pm 21.3 SSW 7 11 1022.1 - 0.0 - - 10 - - - -
28/12:30pm 20.9 SSE 7 12 1022.4 - 0.0 - - 10 - - - -
28/12:00pm 20.7 S 8 14 1022.8 - 0.0 - - 10 - - - -
28/11:30am 20.6 S 10 15 1023.2 - 0.0 - - 10 - - - -
28/11:00am 19.7 S 10 15 1023.5 - 0.0 - - 10 - - - -
28/10:30am 19.9 S 8 12 1023.8 - 0.0 - - 10 - - - -
28/10:00am 19.1 SSW 8 12 1023.8 - 0.0 - - 10 - - - -
28/09:30am 18.3 SSW 8 12 1023.8 - 0.0 - - 10 - - - -
28/09:00am 17.7 SSW 7 9 1023.6 - 0.0 - - 10 - - - -
28/08:30am 16.7 SSW 7 12 1023.3 - 0.0 - - 10 - - - -
28/08:00am 15.4 SSW 6 9 1023.2 - 0.0 - Partly cloudy 10 - - - -
28/07:30am 12.2 SSW 3 5 1022.8 - 0.0 - Partly cloudy 10 - - - -
28/07:00am 8.4 SSE 4 5 1022.3 - 0.0 - - 10 - - - -
28/06:30am 7.5 S 3 4 1022.1 - 0.0 - - 10 - - - -
28/06:00am 7.1 SSW 5 6 1021.7 - 0.0 - - 10 - - - -
28/05:30am 8.3 SE 3 4 1021.2 - 0.0 - - 10 - - - -
28/05:00am 11.2 S 5 6 1020.9 - 0.0 - - 10 - - - -
28/04:30am 9.6 S 1 4 1020.6 - 0.0 - - 10 - - - -
28/04:00am 9.2 SSE 3 5 1020.4 - 0.0 - - 10 - - - -
28/03:30am 11.2 SW 4 5 1020.6 - 0.0 - - 10 - - - -
28/03:00am 9.3 SW 5 7 1020.7 - 0.0 - - 10 - - - -
28/02:30am 7.3 SSW 3 7 1020.7 - 0.0 - - 10 - - - -
28/02:00am 6.6 S 3 4 1020.7 - 0.0 - - 10 - - - -
28/01:30am 6.8 CALM 0 0 1021.1 - 0.0 - - 10 - - - -
28/01:00am 6.6 WSW 5 6 1021.1 - 0.0 - - 10 - - - -
28/12:30am 6.3 W 3 4 1021.0 - 0.0 - - 10 - - - -
28/12:00am 6.7 CALM 0 0 1020.8 - 0.0 - - 10 - - - -
 
Date/Time
EST
Temp
°C
Wind Pressure Rain since
9am
mm
Weather Cloud Vis
km
Sea
Height
m
Swell
Dir  Spd
kts
Gust
kts
hPa Trend Height
m
Period
s
Dir
27/11:30pm 7.5 CALM 0 0 1020.7 - 0.0 - - 10 - - - -
27/11:00pm 9.5 SW 6 7 1020.5 - 0.0 - - 10 - - - -
27/10:30pm 9.3 WSW 7 8 1020.3 - 0.0 - - 10 - - - -
27/10:00pm 9.3 WSW 7 9 1020.2 - 0.0 - - 10 - - - -
27/09:30pm 9.8 WSW 7 8 1020.0 - 0.0 - - 10 - - - -
27/09:00pm 10.4 WSW 8 9 1019.9 - 0.0 - - 10 - - - -
27/08:30pm 9.9 WSW 7 8 1019.8 - 0.0 - - 10 - - - -
27/08:00pm 9.9 WSW 5 7 1019.6 - 0.0 - - 10 - - - -
27/07:30pm 10.1 S 3 6 1019.2 - 0.0 - - 10 - - - -
27/07:00pm 10.6 WSW 6 7 1018.4 - 0.0 - - 10 - - - -
27/06:30pm 11.3 SW 3 5 1017.9 - 0.0 - - 10 - - - -
27/06:00pm 11.8 WSW 5 6 1017.3 - 0.0 - - 10 - - - -
27/05:30pm 13.3 WSW 3 4 1017.0 - 0.0 - - 10 - - - -
27/05:00pm 16.2 WSW 5 6 1016.6 - 0.0 - - 10 - - - -
27/04:30pm 18.3 WNW 5 6 1016.0 - 0.0 - - 10 - - - -
27/04:00pm 18.1 NNW 6 7 1015.9 - 0.0 - - 10 - - - -
27/03:30pm 18.9 NW 7 9 1015.8 - 0.0 - - 10 - - - -
27/03:00pm 19.9 NNW 7 8 1015.4 - 0.0 - Cloudy 10 - - - -
27/02:30pm 19.8 N 6 8 1015.5 - 0.0 - - 10 - - - -
27/02:00pm 19.5 N 5 7 1015.8 - 0.0 - - 10 - - - -
27/01:30pm 19.0 NNE 4 6 1016.1 - 0.0 - - 10 - - - -
27/01:00pm 18.7 NNE 5 6 1016.2 - 0.0 - - 10 - - - -
27/12:30pm 19.2 N 3 5 1016.6 - 0.0 - - 10 - - - -
27/12:00pm 19.3 NE 4 6 1016.5 - 0.0 - Mostly cloudy 10 - - - -
27/11:30am 18.3 NW 1 4 1017.1 - 0.0 - - 10 - - - -
27/11:00am 17.9 NNW 3 5 1017.7 - 0.0 - - 10 - - - -
27/10:30am 16.8 NW 1 3 1017.7 - 0.0 - - 10 - - - -
27/10:00am 16.8 NNW 3 4 1017.5 - 0.0 - - 10 - - - -
27/09:30am 14.9 WSW 5 6 1018.1 - 0.0 - - 10 - - - -
27/09:00am 14.4 CALM 0 0 1017.5 - 0.0 - Mostly cloudy 10 - - - -
27/08:30am 13.2 W 1 3 1017.7 - 0.0 - Partly cloudy 10 - - - -
27/08:00am 13.0 SW 2 5 1017.7 - 0.0 - Partly cloudy 10 - - - -
27/07:30am 12.6 CALM 0 0 1017.5 - 0.0 - - 10 - - - -
27/07:00am 12.3 SW 5 7 1017.2 - 0.0 - - 10 - - - -
27/06:30am 12.1 WSW 6 8 1017.3 - 0.0 - - 10 - - - -
27/06:00am 12.0 WSW 4 4 1016.6 - 0.0 - Cloudy 10 - - - -
27/05:30am 11.9 WNW 4 5 1016.7 - 0.0 - - 10 - - - -
27/05:00am 12.6 WSW 3 5 1016.5 - 0.0 - - 10 - - - -
27/04:30am 12.8 WSW 4 7 1016.2 - 0.0 - - 10 - - - -
27/04:00am 12.6 N 5 7 1015.8 - 0.0 - - 10 - - - -
27/03:30am 12.9 SW 7 10 1016.0 - 0.0 - - 10 - - - -
27/03:00am 12.6 WNW 1 4 1016.0 - 0.0 - Cloudy 10 - - - -
27/02:30am 13.3 ENE 4 4 1015.5 - 0.0 - - 10 - - - -
27/02:00am 12.6 SW 5 8 1016.2 - 0.0 - - 10 - - - -

Other Formats:

Comma delimited format used in spreadsheet applications
http://www.bom.gov.au/fwo/IDN60701/IDN60701.94592.axf

JavaScript Object Notation format (JSON) in row-major order
http://www.bom.gov.au/fwo/IDN60701/IDN60701.94592.json